Weather History for Clovis, NM

Change the Weather History Date:

Wednesday, December 4, 2013

  Actual Average Record
Temperature  
Mean Temperature 44 °F -  
Max Temperature 68 °F 54 °F 79 °F (1917)
Min Temperature 21 °F 27 °F 15 °F (2006)
Degree Days  
Heating Degree Days 20    
Moisture  
Dew Point 24 °F    
Average Humidity 45    
Maximum Humidity 63    
Minimum Humidity 30    
Precipitation  
Precipitation 0.00 in - - ()
Sea Level Pressure  
Sea Level Pressure 29.74 in    
Wind  
Wind Speed 12 mph (SW)    
Max Wind Speed 28 mph    
Max Gust Speed 33 mph    
Visibility 10 miles    
Events      
Averages and records for this station are not official NWS values.
T = Trace of Precipitation, MM = Missing Value Source: NWS Daily Summary

Daily Weather History Graph

Daily Weather History Graph

Search for Another Location

Airport:

Trip Planner

Search our weather history database for the weather conditions in past years. The results will help you decide how hot, cold, wet, or windy it might be!

Date:

Astronomy

Dec. 04, 2013 Rise Set
Actual Time 6:43 AM MST 4:41 PM MST
Civil Twilight 6:15 AM MST 5:09 PM MST
Nautical Twilight 5:44 AM MST 5:40 PM MST
Astronomical Twilight 5:14 AM MST 6:11 PM MST
Moon 8:15 AM MST (12/4) 6:52 PM MST (12/4)
Length of Visible Light 10h 53m
Length of Day
9h 58m
Waxing Crescent, 5% of the Moon is Illuminated
Dec 4
Waxing Crescent
Dec 9
First Quarter
Dec 17
Full
Dec 25
Last Quarter
Jan 1
New

Hourly Weather History & Observations

Time (MST) Temp. Windchill Dew Point Humidity Pressure Visibility Wind Dir Wind Speed Gust Speed Precip Events Conditions
12:15 AM 42.8 °F 37.5 °F 19.4 °F 39% 29.65 in 10.0 mi West 9.2 mph - N/A   Clear
12:35 AM 44.6 °F 40.2 °F 19.4 °F 37% 29.65 in 10.0 mi West 8.1 mph - N/A   Clear
12:55 AM 48.2 °F - 19.4 °F 32% 29.65 in 10.0 mi WSW 11.5 mph - N/A   Clear
1:15 AM 46.4 °F 41.5 °F 17.6 °F 32% 29.65 in 10.0 mi WSW 10.4 mph - N/A   Clear
1:35 AM 46.4 °F 41.1 °F 17.6 °F 32% 29.65 in 10.0 mi WSW 11.5 mph - N/A   Clear
1:55 AM 41.0 °F 34.7 °F 19.4 °F 42% 29.66 in 10.0 mi SW 10.4 mph - N/A   Clear
2:15 AM 42.8 °F 38.0 °F 19.4 °F 39% 29.66 in 10.0 mi SW 8.1 mph - N/A   Clear
2:35 AM 42.8 °F 37.5 °F 17.6 °F 36% 29.67 in 10.0 mi West 9.2 mph - N/A   Clear
2:55 AM 44.6 °F 39.7 °F 17.6 °F 34% 29.66 in 10.0 mi West 9.2 mph - N/A   Clear
3:15 AM 44.6 °F 41.4 °F 17.6 °F 34% 29.66 in 10.0 mi West 5.8 mph - N/A   Clear
3:35 AM 42.8 °F 38.6 °F 17.6 °F 36% 29.66 in 10.0 mi WNW 6.9 mph - N/A   Clear
3:55 AM 42.8 °F 38.6 °F 19.4 °F 39% 29.66 in 10.0 mi West 6.9 mph - N/A   Clear
4:15 AM 39.2 °F 35.0 °F 19.4 °F 45% 29.67 in 10.0 mi WNW 5.8 mph - N/A   Clear
4:35 AM 37.4 °F 34.9 °F 19.4 °F 48% 29.68 in 10.0 mi South 3.5 mph - N/A   Clear
4:55 AM 37.4 °F - 21.2 °F 52% 29.68 in 10.0 mi Calm Calm - N/A   Clear
5:15 AM 39.2 °F 34.2 °F 21.2 °F 49% 29.68 in 10.0 mi SW 6.9 mph - N/A   Clear
5:35 AM 41.0 °F 35.8 °F 19.4 °F 42% 29.68 in 10.0 mi SW 8.1 mph - N/A   Clear
5:55 AM 41.0 °F - 21.2 °F 45% 29.68 in 10.0 mi Calm Calm - N/A   Clear
6:15 AM 37.4 °F - 23.0 °F 56% 29.69 in 10.0 mi Calm Calm - N/A   Clear
6:35 AM 39.2 °F 32.0 °F 24.8 °F 56% 29.70 in 10.0 mi ENE 11.5 mph - N/A   Clear
6:55 AM 37.4 °F 32.1 °F 23.0 °F 56% 29.71 in 10.0 mi ENE 6.9 mph - N/A   Clear
7:15 AM 37.4 °F 32.1 °F 24.8 °F 60% 29.72 in 10.0 mi East 6.9 mph - N/A   Clear
7:35 AM 39.2 °F 35.0 °F 24.8 °F 56% 29.73 in 10.0 mi ENE 5.8 mph - N/A   Clear
7:55 AM 37.4 °F 33.8 °F 24.8 °F 60% 29.73 in 10.0 mi NNE 4.6 mph - N/A   Clear
8:15 AM 39.2 °F - 26.6 °F 61% 29.73 in 10.0 mi Calm Calm - N/A   Clear
8:35 AM 39.2 °F - 26.6 °F 61% 29.74 in 10.0 mi Calm Calm - N/A   Clear
8:55 AM 44.6 °F - 26.6 °F 49% 29.74 in 10.0 mi Calm Calm - N/A   Clear
9:15 AM 48.2 °F - 28.4 °F 46% 29.74 in 10.0 mi SSE 4.6 mph - N/A   Clear
9:35 AM 53.6 °F - 33.8 °F 47% 29.74 in 10.0 mi South 9.2 mph - N/A   Clear
9:55 AM 57.2 °F - 37.4 °F 48% 29.73 in 10.0 mi South 10.4 mph - N/A   Clear
10:15 AM 57.2 °F - 37.4 °F 48% 29.73 in 10.0 mi SSW 12.7 mph - N/A   Clear
10:35 AM 60.8 °F - 37.4 °F 42% 29.73 in 10.0 mi SSW 13.8 mph - N/A   Clear
10:55 AM 60.8 °F - 37.4 °F 42% 29.72 in 10.0 mi SSW 16.1 mph - N/A   Clear
11:15 AM 60.8 °F - 37.4 °F 42% 29.70 in 10.0 mi South 10.4 mph - N/A   Clear
11:35 AM 66.2 °F - 35.6 °F 32% 29.68 in 10.0 mi SSW 20.7 mph 27.6 mph N/A   Clear
11:55 AM 66.2 °F - 35.6 °F 32% 29.67 in 10.0 mi SW 23.0 mph 27.6 mph N/A   Clear
12:15 PM 66.2 °F - 35.6 °F 32% 29.66 in 10.0 mi SW 18.4 mph 25.3 mph N/A   Clear
12:35 PM 66.2 °F - 35.6 °F 32% 29.65 in 10.0 mi SSW 16.1 mph 26.5 mph N/A   Clear
12:55 PM 66.2 °F - 35.6 °F 32% 29.66 in 10.0 mi SSW 21.9 mph 28.8 mph N/A   Clear
1:15 PM 68.0 °F - 35.6 °F 30% 29.66 in 10.0 mi SW 24.2 mph 29.9 mph N/A   Clear
1:35 PM 66.2 °F - 33.8 °F 30% 29.65 in 10.0 mi SW 21.9 mph 27.6 mph N/A   Clear
1:55 PM 68.0 °F - 35.6 °F 30% 29.66 in 10.0 mi SW 20.7 mph 26.5 mph N/A   Clear
2:15 PM 68.0 °F - 35.6 °F 30% 29.66 in 10.0 mi SW 24.2 mph 32.2 mph N/A   Clear
2:35 PM 68.0 °F - 35.6 °F 30% 29.65 in 10.0 mi SW 19.6 mph 27.6 mph N/A   Partly Cloudy
2:55 PM 66.2 °F - 33.8 °F 30% 29.65 in 10.0 mi SW 20.7 mph 29.9 mph N/A   Clear
3:15 PM 66.2 °F - 33.8 °F 30% 29.65 in 10.0 mi SW 17.3 mph 25.3 mph N/A   Clear
3:35 PM 66.2 °F - 35.6 °F 32% 29.66 in 10.0 mi SSW 20.7 mph - N/A   Partly Cloudy
3:55 PM 66.2 °F - 37.4 °F 35% 29.66 in 10.0 mi SSW 16.1 mph - N/A   Clear
4:15 PM 62.6 °F - 35.6 °F 37% 29.67 in 10.0 mi SW 9.2 mph - N/A   Clear
4:35 PM 59.0 °F - 35.6 °F 42% 29.68 in 10.0 mi SW 10.4 mph - N/A   Clear
4:55 PM 57.2 °F - 35.6 °F 44% 29.69 in 10.0 mi SSW 10.4 mph - N/A   Clear
5:15 PM 55.4 °F - 33.8 °F 44% 29.70 in 10.0 mi SW 8.1 mph - N/A   Clear
5:35 PM 55.4 °F - 32.0 °F 41% 29.72 in 10.0 mi NNE 19.6 mph 24.2 mph N/A   Clear
5:55 PM 41.0 °F 30.9 °F 23.0 °F 49% 29.75 in 10.0 mi NE 24.2 mph 31.1 mph N/A   Clear
6:15 PM 37.4 °F 25.6 °F 19.4 °F 48% 29.77 in 10.0 mi NE 26.5 mph 33.4 mph N/A   Partly Cloudy
6:35 PM 35.6 °F 23.7 °F 19.4 °F 52% 29.80 in 10.0 mi NE 24.2 mph 31.1 mph N/A   Partly Cloudy
6:55 PM 33.8 °F 20.5 °F 19.4 °F 56% 29.82 in 10.0 mi NE 27.6 mph 33.4 mph N/A   Scattered Clouds
7:15 PM 32.0 °F 18.1 °F 17.6 °F 55% 29.85 in 10.0 mi NE 27.6 mph 31.1 mph N/A   Scattered Clouds
7:35 PM 30.2 °F 16.5 °F 17.6 °F 60% 29.86 in 10.0 mi NE 24.2 mph - N/A   Scattered Clouds
7:55 PM 30.2 °F 17.1 °F 15.8 °F 55% 29.87 in 10.0 mi NE 21.9 mph 26.5 mph N/A   Partly Cloudy
8:15 PM 28.4 °F 14.1 °F 15.8 °F 59% 29.88 in 10.0 mi NE 24.2 mph 29.9 mph N/A   Clear
8:35 PM 26.6 °F 11.1 °F 14.0 °F 59% 29.90 in 10.0 mi NE 26.5 mph 29.9 mph N/A   Clear
8:55 PM 26.6 °F 12.0 °F 12.2 °F 55% 29.92 in 10.0 mi NE 23.0 mph 28.8 mph N/A   Clear
9:15 PM 24.8 °F 9.3 °F 10.4 °F 54% 29.92 in 10.0 mi NE 24.2 mph 27.6 mph N/A   Clear
9:35 PM 23.0 °F 8.0 °F 10.4 °F 59% 29.95 in 10.0 mi NE 20.7 mph 28.8 mph N/A   Clear
9:55 PM 23.0 °F 6.9 °F 8.6 °F 54% 29.95 in 10.0 mi NE 24.2 mph 29.9 mph N/A   Clear
10:15 PM 21.2 °F 4.5 °F 10.4 °F 63% 29.97 in 10.0 mi NNE 24.2 mph 28.8 mph N/A   Partly Cloudy
10:35 PM 21.2 °F 4.9 °F 8.6 °F 58% 29.99 in 10.0 mi NNE 23.0 mph 28.8 mph N/A   Partly Cloudy
10:55 PM 21.2 °F 5.2 °F 6.8 °F 54% 29.99 in 10.0 mi NE 21.9 mph - N/A   Clear
11:15 PM 21.2 °F 5.2 °F 6.8 °F 54% 29.99 in 10.0 mi NE 21.9 mph 27.6 mph N/A   Partly Cloudy
11:35 PM 21.2 °F 4.5 °F 6.8 °F 54% 30.01 in 10.0 mi NNE 24.2 mph - N/A   Scattered Clouds
11:55 PM 21.2 °F 6.0 °F 5.0 °F 50% 30.02 in 10.0 mi NNE 19.6 mph 25.3 mph N/A   Scattered Clouds